createdAt,value
2023-01-23T00:01:04.856Z,10.18
2023-01-23T00:03:33.382Z,9.80
2023-01-23T00:06:05.624Z,9.73
2023-01-23T00:08:33.126Z,9.23
2023-01-23T00:11:00.113Z,9.77
2023-01-23T00:13:26.961Z,10.35
2023-01-23T00:15:54.139Z,10.00
2023-01-23T00:18:20.970Z,9.75
2023-01-23T00:20:47.919Z,9.70
2023-01-23T00:23:14.955Z,9.40
2023-01-23T00:25:41.726Z,10.15
2023-01-23T00:28:08.546Z,9.20
2023-01-23T00:30:35.456Z,10.02
2023-01-23T00:33:02.405Z,10.27
2023-01-23T00:35:29.462Z,9.68
2023-01-23T00:37:57.908Z,8.07
2023-01-23T00:40:24.891Z,9.00
2023-01-23T00:42:51.772Z,10.25
2023-01-23T00:45:18.894Z,9.57
2023-01-23T00:47:45.791Z,9.63
2023-01-23T00:50:12.676Z,8.77
2023-01-23T00:52:40.920Z,10.02
2023-01-23T00:55:08.854Z,9.50
2023-01-23T00:57:35.673Z,7.87
2023-01-23T01:00:03.171Z,9.52
2023-01-23T01:02:30.157Z,10.25
2023-01-23T01:04:57.690Z,9.00
2023-01-23T01:07:24.691Z,9.52
2023-01-23T01:09:52.273Z,9.27
2023-01-23T01:12:19.400Z,9.75
2023-01-23T01:14:46.204Z,9.95
2023-01-23T01:17:15.301Z,9.80
2023-01-23T01:19:42.242Z,9.45
2023-01-23T01:22:09.131Z,10.93
2023-01-23T01:24:35.909Z,10.15
2023-01-23T01:27:02.844Z,10.77
2023-01-23T01:29:29.827Z,9.55
2023-01-23T01:31:56.764Z,9.82
2023-01-23T01:34:23.774Z,10.17
2023-01-23T01:36:51.696Z,10.90
2023-01-23T01:39:18.998Z,11.10
2023-01-23T01:41:46.396Z,9.75
2023-01-23T01:44:18.321Z,9.15
2023-01-23T01:46:46.399Z,9.43
2023-01-23T01:49:31.130Z,9.82
2023-01-23T01:52:07.944Z,10.20
2023-01-23T01:54:42.771Z,9.55
2023-01-23T01:57:26.664Z,8.82
2023-01-23T02:00:00.377Z,10.50
2023-01-23T02:02:31.697Z,10.25
2023-01-23T02:05:02.985Z,9.93
2023-01-23T02:07:41.099Z,9.85
2023-01-23T02:10:09.323Z,10.98
2023-01-23T02:12:40.729Z,9.53
2023-01-23T02:15:08.268Z,9.50
2023-01-23T02:17:37.024Z,10.05
2023-01-23T02:20:21.357Z,10.10
2023-01-23T02:23:03.851Z,10.00
2023-01-23T02:25:45.430Z,10.77
2023-01-23T02:28:16.874Z,9.77
2023-01-23T02:30:48.234Z,10.90
2023-01-23T02:33:22.080Z,10.07
2023-01-23T02:35:51.174Z,9.73
2023-01-23T02:38:22.652Z,9.50
2023-01-23T02:40:52.697Z,10.38
2023-01-23T02:43:28.376Z,11.20
2023-01-23T02:46:03.079Z,9.80
2023-01-23T02:48:29.981Z,10.27
2023-01-23T02:50:59.754Z,10.57
2023-01-23T02:53:27.535Z,10.73
2023-01-23T02:55:54.549Z,10.82
2023-01-23T02:58:41.668Z,10.07
2023-01-23T03:01:08.914Z,10.23
2023-01-23T03:03:35.840Z,11.13
2023-01-23T03:06:06.002Z,9.80
2023-01-23T03:08:42.229Z,10.65
2023-01-23T03:11:09.262Z,10.98
2023-01-23T03:13:36.141Z,10.13
2023-01-23T03:16:06.847Z,10.17
2023-01-23T03:18:37.935Z,10.55
2023-01-23T03:21:12.682Z,10.27
2023-01-23T03:23:41.965Z,10.98
2023-01-23T03:26:08.764Z,11.48
2023-01-23T03:28:54.271Z,10.60
2023-01-23T03:31:21.115Z,11.05
2023-01-23T03:33:48.780Z,11.00
2023-01-23T03:36:15.713Z,11.30
2023-01-23T03:39:02.606Z,11.32
2023-01-23T03:41:30.508Z,11.93
2023-01-23T03:44:03.030Z,10.73
2023-01-23T03:46:29.889Z,11.25
2023-01-23T03:48:56.740Z,11.48
2023-01-23T03:51:24.137Z,11.60
2023-01-23T03:53:51.053Z,11.23
2023-01-23T03:56:18.006Z,11.13
2023-01-23T03:58:44.879Z,11.85
2023-01-23T04:01:13.866Z,11.85
2023-01-23T04:03:42.907Z,11.65
2023-01-23T04:06:10.511Z,11.17
2023-01-23T04:08:38.105Z,12.40
2023-01-23T04:11:07.163Z,12.48
2023-01-23T04:13:33.989Z,12.18
2023-01-23T04:16:01.941Z,12.55
2023-01-23T04:18:29.223Z,11.37
2023-01-23T04:20:56.830Z,10.73
2023-01-23T04:23:24.293Z,12.82
2023-01-23T04:25:52.095Z,11.68
2023-01-23T04:28:20.288Z,12.07
2023-01-23T04:30:52.902Z,11.50
2023-01-23T04:33:26.303Z,12.13
2023-01-23T04:35:57.463Z,12.38
2023-01-23T04:38:27.946Z,13.07
2023-01-23T04:40:55.758Z,11.95
2023-01-23T04:43:22.896Z,12.43
2023-01-23T04:45:53.327Z,11.20
2023-01-23T04:48:40.462Z,11.85
2023-01-23T04:51:09.790Z,12.15
2023-01-23T04:53:38.372Z,13.13
2023-01-23T04:56:05.631Z,11.93
2023-01-23T04:58:33.005Z,12.02
2023-01-23T05:01:06.859Z,12.15
2023-01-23T05:03:35.770Z,11.77
2023-01-23T05:06:03.015Z,12.30
2023-01-23T05:08:29.958Z,10.87
2023-01-23T05:11:16.468Z,12.23
2023-01-23T05:13:44.266Z,12.82
2023-01-23T05:16:12.288Z,12.25
2023-01-23T05:18:59.434Z,12.68
2023-01-23T05:21:26.986Z,12.47
2023-01-23T05:23:54.247Z,13.02
2023-01-23T05:26:21.849Z,11.68
2023-01-23T05:28:48.762Z,12.07
2023-01-23T05:31:15.852Z,12.60
2023-01-23T05:33:54.523Z,12.67
2023-01-23T05:36:21.474Z,11.85
2023-01-23T05:38:48.329Z,13.63
2023-01-23T05:41:15.275Z,12.32
2023-01-23T05:44:02.467Z,12.80
2023-01-23T05:46:36.599Z,12.13
2023-01-23T05:49:04.158Z,12.25
2023-01-23T05:51:33.782Z,11.98
2023-01-23T05:54:02.099Z,12.07
2023-01-23T05:56:29.369Z,12.05
2023-01-23T05:59:14.724Z,11.73
2023-01-23T06:02:05.451Z,13.20
2023-01-23T06:04:55.846Z,12.65
2023-01-23T06:07:37.731Z,12.93
2023-01-23T06:10:17.009Z,11.95
2023-01-23T06:12:44.051Z,12.50
2023-01-23T06:15:11.580Z,13.23
2023-01-23T06:17:38.896Z,13.32
2023-01-23T06:20:06.330Z,12.55
2023-01-23T06:22:33.709Z,12.93
2023-01-23T06:25:04.437Z,12.67
2023-01-23T06:27:32.252Z,10.80
2023-01-23T06:30:03.312Z,12.77
2023-01-23T06:32:32.118Z,13.02
2023-01-23T06:34:59.013Z,12.27
2023-01-23T06:37:25.962Z,12.63
2023-01-23T06:39:53.073Z,12.18
2023-01-23T06:42:20.569Z,12.38
2023-01-23T06:44:49.378Z,12.85
2023-01-23T06:47:16.782Z,12.80
2023-01-23T06:49:45.624Z,12.40
2023-01-23T06:52:12.521Z,13.32
2023-01-23T06:54:39.330Z,13.65
2023-01-23T06:57:06.929Z,13.02
2023-01-23T06:59:34.466Z,12.55
2023-01-23T07:02:03.704Z,12.20
2023-01-23T07:04:45.021Z,12.68
2023-01-23T07:07:12.719Z,12.00
2023-01-23T07:09:40.791Z,12.70
2023-01-23T07:12:13.455Z,13.27
2023-01-23T07:14:40.431Z,12.80
2023-01-23T07:17:09.311Z,13.40
2023-01-23T07:19:36.238Z,11.20
2023-01-23T07:22:09.634Z,12.45
2023-01-23T07:24:36.628Z,12.55
2023-01-23T07:27:03.585Z,12.70
2023-01-23T07:29:30.439Z,13.68
2023-01-23T07:31:59.147Z,14.27
2023-01-23T07:34:25.952Z,12.77
2023-01-23T07:36:52.888Z,13.50
2023-01-23T07:39:19.719Z,13.23
2023-01-23T07:41:46.617Z,12.40
2023-01-23T07:44:20.080Z,14.27
2023-01-23T07:46:48.452Z,13.00
2023-01-23T07:49:16.087Z,13.90
2023-01-23T07:51:42.894Z,13.03
2023-01-23T07:54:10.764Z,13.52
2023-01-23T07:56:37.887Z,13.07
2023-01-23T07:59:04.825Z,13.23
2023-01-23T08:01:32.060Z,13.45
2023-01-23T08:03:58.862Z,11.73
2023-01-23T08:06:25.855Z,13.98
2023-01-23T08:08:52.714Z,13.93
2023-01-23T08:11:19.815Z,13.43
2023-01-23T08:13:50.279Z,13.52
2023-01-23T08:16:17.193Z,14.27
2023-01-23T08:18:44.523Z,13.90
2023-01-23T08:21:11.653Z,13.52
2023-01-23T08:23:38.992Z,13.48
2023-01-23T08:26:08.814Z,13.55
2023-01-23T08:28:36.076Z,12.90
2023-01-23T08:31:06.945Z,13.48
2023-01-23T08:33:35.528Z,13.52
2023-01-23T08:36:02.825Z,12.95
2023-01-23T08:38:30.747Z,14.10
2023-01-23T08:41:00.386Z,13.00
2023-01-23T08:43:27.450Z,13.20
2023-01-23T08:45:56.983Z,13.10
2023-01-23T08:48:25.612Z,14.05
2023-01-23T08:50:58.400Z,14.38
2023-01-23T08:53:25.260Z,12.30
2023-01-23T08:55:54.573Z,13.60
2023-01-23T08:58:21.451Z,13.98
2023-01-23T09:00:49.075Z,11.73
2023-01-23T09:03:15.872Z,14.10
2023-01-23T09:05:42.794Z,14.77
2023-01-23T09:08:09.927Z,14.27
2023-01-23T09:10:36.949Z,15.07
2023-01-23T09:13:04.229Z,13.43
2023-01-23T09:15:31.812Z,13.48
2023-01-23T09:17:58.587Z,14.30
2023-01-23T09:20:29.281Z,14.27
2023-01-23T09:22:56.068Z,14.18
2023-01-23T09:25:22.950Z,14.40
2023-01-23T09:27:49.699Z,15.02
2023-01-23T09:30:16.785Z,14.17
2023-01-23T09:32:43.628Z,14.60
2023-01-23T09:35:10.975Z,12.95
2023-01-23T09:37:59.254Z,10.68
2023-01-23T09:40:35.604Z,13.93
2023-01-23T09:43:12.667Z,13.83
2023-01-23T09:45:44.074Z,13.85
2023-01-23T09:48:27.906Z,14.52
2023-01-23T09:51:20.010Z,14.07
2023-01-23T09:53:47.061Z,14.50
2023-01-23T09:56:31.262Z,13.10
2023-01-23T09:59:36.642Z,14.68
2023-01-23T10:02:20.358Z,12.43
2023-01-23T10:04:52.569Z,13.40
2023-01-23T10:07:47.538Z,15.30
2023-01-23T10:10:44.266Z,14.70
2023-01-23T10:13:28.037Z,14.55
2023-01-23T10:16:23.411Z,14.80
2023-01-23T10:19:05.065Z,14.45
2023-01-23T10:22:01.593Z,14.93
2023-01-23T10:24:40.906Z,13.17
2023-01-23T10:27:20.734Z,13.15
2023-01-23T10:30:20.471Z,14.80
2023-01-23T10:32:59.813Z,14.75
2023-01-23T10:35:53.645Z,13.50
2023-01-23T10:38:30.977Z,14.20
2023-01-23T10:41:23.286Z,14.52
2023-01-23T10:43:53.105Z,14.73
2023-01-23T10:46:45.607Z,15.05
2023-01-23T10:49:26.483Z,14.45
2023-01-23T10:51:53.341Z,13.63
2023-01-23T10:54:31.798Z,13.57
2023-01-23T10:57:08.403Z,13.43
2023-01-23T10:59:54.377Z,13.82
2023-01-23T11:02:28.120Z,13.70
2023-01-23T11:04:55.733Z,14.30
2023-01-23T11:07:28.966Z,14.45
2023-01-23T11:10:01.502Z,11.95
2023-01-23T11:12:31.150Z,10.85
2023-01-23T11:15:19.839Z,13.05
2023-01-23T11:17:47.139Z,13.27
2023-01-23T11:20:39.495Z,12.35
2023-01-23T11:23:11.358Z,13.05
2023-01-23T11:25:52.575Z,12.32
2023-01-23T11:28:33.940Z,13.38
2023-01-23T11:31:22.101Z,13.10
2023-01-23T11:33:55.304Z,12.73
2023-01-23T11:36:47.300Z,11.70
2023-01-23T11:39:21.708Z,12.80
2023-01-23T11:41:49.008Z,12.27
2023-01-23T11:44:23.004Z,11.40
2023-01-23T11:47:13.627Z,12.45
2023-01-23T11:49:59.615Z,13.13
2023-01-23T11:52:31.622Z,12.10
2023-01-23T11:55:17.181Z,12.73
2023-01-23T11:58:05.064Z,12.03
2023-01-23T12:01:11.303Z,12.18
2023-01-23T12:03:43.698Z,12.70
2023-01-23T12:06:37.456Z,12.30
2023-01-23T12:09:18.648Z,12.23
2023-01-23T12:11:58.446Z,11.27
2023-01-23T12:14:34.377Z,12.05
2023-01-23T12:17:09.164Z,11.45
2023-01-23T12:19:56.937Z,11.90
2023-01-23T12:22:44.959Z,11.88
2023-01-23T12:26:00.774Z,11.20
2023-01-23T12:28:36.042Z,10.90
2023-01-23T12:31:43.092Z,11.70
2023-01-23T12:34:44.725Z,11.20
2023-01-23T12:37:39.211Z,10.18
2023-01-23T12:40:31.651Z,10.67
2023-01-23T12:43:13.133Z,11.15
2023-01-23T12:45:51.238Z,10.80
2023-01-23T12:48:28.514Z,10.60
2023-01-23T12:51:08.783Z,10.60
2023-01-23T12:53:39.727Z,10.33
2023-01-23T12:56:41.857Z,10.75
2023-01-23T12:59:26.449Z,10.98
2023-01-23T13:02:04.144Z,9.20
2023-01-23T13:04:52.752Z,9.45
2023-01-23T13:07:32.260Z,9.47
2023-01-23T13:11:11.478Z,10.80
2023-01-23T13:13:38.614Z,9.90
2023-01-23T13:16:17.130Z,10.38
2023-01-23T13:19:19.972Z,10.65
2023-01-23T13:22:19.031Z,10.23
2023-01-23T13:25:13.421Z,10.63
2023-01-23T13:27:59.952Z,10.00
2023-01-23T13:30:26.953Z,10.50
2023-01-23T13:33:15.175Z,11.30
2023-01-23T13:35:45.135Z,10.67
2023-01-23T13:38:30.317Z,11.00
2023-01-23T13:41:08.454Z,10.70
2023-01-23T13:43:50.314Z,10.82
2023-01-23T13:46:29.466Z,10.82
2023-01-23T14:21:52.569Z,10.30
2023-01-23T14:24:32.937Z,11.32
2023-01-23T14:27:07.457Z,9.02
2023-01-23T14:29:35.616Z,10.50
2023-01-23T14:32:02.903Z,10.40
2023-01-23T14:34:29.913Z,10.50
2023-01-23T14:37:04.322Z,9.35
2023-01-23T14:39:34.320Z,10.20
2023-01-23T14:42:04.406Z,11.02
2023-01-23T14:44:40.305Z,10.30
2023-01-23T14:47:15.054Z,10.93
2023-01-23T14:49:42.527Z,11.27
2023-01-23T14:52:25.816Z,10.85
2023-01-23T14:54:54.376Z,11.50
2023-01-23T14:57:23.982Z,10.23
2023-01-23T14:59:58.944Z,11.45
2023-01-23T15:02:36.493Z,10.35
2023-01-23T15:05:25.257Z,10.40
2023-01-23T15:07:56.372Z,10.38
2023-01-23T15:10:28.124Z,10.53
2023-01-23T15:13:12.298Z,10.02
2023-01-23T15:15:45.550Z,10.23
2023-01-23T15:18:23.424Z,8.73
2023-01-23T15:21:05.537Z,7.22
2023-01-23T15:23:37.274Z,7.83
2023-01-23T15:26:15.023Z,8.15
2023-01-23T15:28:48.592Z,8.65
2023-01-23T15:31:24.109Z,8.50
2023-01-23T15:33:51.990Z,7.50
2023-01-23T15:36:26.842Z,7.17
2023-01-23T15:38:55.000Z,7.88
2023-01-23T15:41:36.078Z,6.88
2023-01-23T15:44:03.224Z,7.00
2023-01-23T15:46:30.101Z,7.32
2023-01-23T15:48:57.093Z,7.57
2023-01-23T15:51:24.051Z,7.97
2023-01-23T15:53:51.047Z,9.05
2023-01-23T15:56:30.688Z,7.75
2023-01-23T15:58:59.333Z,8.23
2023-01-23T16:01:26.770Z,8.30
2023-01-23T16:03:53.735Z,8.07
2023-01-23T16:06:23.869Z,8.52
2023-01-23T16:09:00.963Z,9.35
2023-01-23T16:11:34.642Z,7.50
2023-01-23T16:14:02.073Z,8.30
2023-01-23T16:16:30.127Z,8.13
2023-01-23T16:18:57.169Z,8.13
2023-01-23T16:21:30.431Z,8.38
2023-01-23T16:23:57.903Z,9.68
2023-01-23T16:26:27.205Z,8.63
2023-01-23T16:29:01.964Z,8.65
2023-01-23T16:31:39.680Z,9.50
2023-01-23T16:34:06.651Z,10.73
2023-01-23T16:36:33.498Z,9.75
2023-01-23T16:39:00.584Z,9.13
2023-01-23T16:41:27.367Z,10.50
2023-01-23T16:43:54.301Z,9.32
2023-01-23T16:46:21.296Z,9.80
2023-01-23T16:48:50.598Z,11.88
2023-01-23T16:51:21.895Z,11.10
2023-01-23T16:53:57.566Z,9.45
2023-01-23T16:56:35.034Z,11.80
2023-01-23T16:59:07.946Z,9.65
2023-01-23T17:01:40.059Z,11.77
2023-01-23T17:04:07.491Z,10.03
2023-01-23T17:06:34.559Z,10.93
2023-01-23T17:09:01.605Z,12.07
2023-01-23T17:11:41.037Z,10.93
2023-01-23T17:14:15.409Z,11.15
2023-01-23T17:16:42.795Z,11.07
2023-01-23T17:19:22.442Z,11.32
2023-01-23T17:21:49.776Z,11.38
2023-01-23T17:24:19.614Z,10.82
2023-01-23T17:26:49.715Z,11.55
2023-01-23T17:29:16.891Z,11.27
2023-01-23T17:31:45.095Z,11.05
2023-01-23T17:34:24.306Z,11.98
2023-01-23T17:36:54.376Z,11.73
2023-01-23T17:39:21.439Z,11.77
2023-01-23T17:41:48.487Z,11.73
2023-01-23T17:44:15.400Z,12.43
2023-01-23T17:46:42.575Z,12.00
2023-01-23T17:49:28.476Z,11.68
2023-01-23T17:51:57.540Z,11.85
2023-01-23T17:54:26.358Z,11.47
2023-01-23T17:56:54.104Z,11.45
2023-01-23T17:59:21.124Z,11.55
2023-01-23T18:01:48.022Z,10.77
2023-01-23T18:04:20.725Z,11.23
2023-01-23T18:06:48.885Z,10.93
2023-01-23T18:09:16.105Z,12.00
2023-01-23T18:11:56.371Z,13.27
2023-01-23T18:14:55.756Z,11.95
2023-01-23T18:17:47.818Z,10.82
2023-01-23T18:20:23.685Z,11.23
2023-01-23T18:22:50.988Z,11.60
2023-01-23T18:25:19.787Z,13.07
2023-01-23T18:27:52.814Z,12.82
2023-01-23T18:30:43.766Z,12.00
2023-01-23T18:33:34.389Z,12.07
2023-01-23T18:36:16.624Z,11.68
2023-01-23T18:39:01.385Z,12.48
2023-01-23T18:41:29.519Z,11.30
2023-01-23T18:44:12.624Z,12.40
2023-01-23T18:46:39.725Z,11.20
2023-01-23T18:49:06.909Z,12.10
2023-01-23T18:51:36.845Z,12.23
2023-01-23T18:54:19.099Z,12.07
2023-01-23T18:57:12.759Z,12.63
2023-01-23T18:59:53.629Z,12.17
2023-01-23T19:02:46.899Z,10.95
2023-01-23T19:05:14.210Z,11.90
2023-01-23T19:07:42.106Z,12.27
2023-01-23T19:10:19.701Z,11.98
2023-01-23T19:13:14.381Z,10.93
2023-01-23T19:15:48.803Z,11.45
2023-01-23T19:18:48.888Z,12.77
2023-01-23T19:21:24.333Z,12.50
2023-01-23T19:24:02.616Z,12.90
2023-01-23T19:26:35.482Z,12.70
2023-01-23T19:29:19.961Z,12.40
2023-01-23T19:32:05.877Z,11.85
2023-01-23T19:34:33.940Z,12.38
2023-01-23T19:37:00.957Z,12.43
2023-01-23T19:39:27.964Z,14.10
2023-01-23T19:41:54.725Z,12.30
2023-01-23T19:44:25.247Z,13.48
2023-01-23T19:46:52.669Z,12.45
2023-01-23T19:49:20.003Z,12.95
2023-01-23T19:51:47.276Z,12.67
2023-01-23T19:54:15.242Z,12.93
2023-01-23T19:56:42.888Z,11.73
2023-01-23T19:59:10.711Z,12.55
2023-01-23T20:01:43.543Z,12.02
2023-01-23T20:04:16.322Z,12.93
2023-01-23T20:06:45.781Z,12.55
2023-01-23T20:09:17.627Z,13.38
2023-01-23T20:11:45.448Z,13.23
2023-01-23T20:14:13.565Z,12.95
2023-01-23T20:16:43.462Z,12.03
2023-01-23T20:19:15.996Z,12.90
2023-01-23T20:21:43.044Z,13.48
2023-01-23T20:24:10.674Z,12.93
2023-01-23T20:26:38.717Z,13.23
2023-01-23T20:29:07.288Z,12.57
2023-01-23T20:31:36.204Z,13.00
2023-01-23T20:34:03.288Z,12.70
2023-01-23T20:36:30.679Z,12.57
2023-01-23T20:38:57.845Z,12.15
2023-01-23T20:41:24.934Z,12.37
2023-01-23T20:43:52.704Z,13.98
2023-01-23T20:46:20.014Z,13.63
2023-01-23T20:48:47.285Z,12.13
2023-01-23T20:51:17.561Z,13.20
2023-01-23T20:53:45.626Z,12.33
2023-01-23T20:56:15.033Z,13.73
2023-01-23T20:59:05.073Z,13.55
2023-01-23T21:01:54.769Z,13.65
2023-01-23T21:04:23.584Z,11.65
2023-01-23T21:06:50.943Z,12.57
2023-01-23T21:09:18.194Z,12.57
2023-01-23T21:11:45.759Z,14.13
2023-01-23T21:14:14.133Z,13.50
2023-01-23T21:16:41.329Z,12.85
2023-01-23T21:19:09.139Z,13.33
2023-01-23T21:21:36.636Z,12.38
2023-01-23T21:24:03.723Z,13.95
2023-01-23T21:26:30.834Z,13.10
2023-01-23T21:28:58.826Z,14.02
2023-01-23T21:31:29.898Z,13.27
2023-01-23T21:34:00.109Z,13.70
2023-01-23T21:36:30.429Z,14.35
2023-01-23T21:38:57.632Z,14.23
2023-01-23T21:41:24.612Z,13.82
2023-01-23T21:43:51.757Z,11.23
2023-01-23T21:46:18.730Z,13.45
2023-01-23T21:48:45.620Z,13.07
2023-01-23T21:51:15.794Z,12.80
2023-01-23T21:53:43.983Z,14.07
2023-01-23T21:56:13.302Z,13.33
2023-01-23T21:58:41.180Z,10.50
2023-01-23T22:01:32.055Z,13.15
2023-01-23T22:04:00.049Z,13.15
2023-01-23T22:06:27.463Z,13.13
2023-01-23T22:08:54.247Z,13.53
2023-01-23T22:11:21.142Z,13.05
2023-01-23T22:13:48.167Z,13.02
2023-01-23T22:16:15.418Z,12.32
2023-01-23T22:18:42.426Z,12.23
2023-01-23T22:21:10.012Z,13.50
2023-01-23T22:23:36.846Z,10.15
2023-01-23T22:26:07.956Z,10.10
2023-01-23T22:28:36.127Z,12.65
2023-01-23T22:31:14.202Z,12.30
2023-01-23T22:33:47.359Z,12.53
2023-01-23T22:36:19.540Z,12.32
2023-01-23T22:38:56.089Z,13.07
2023-01-23T22:41:23.929Z,12.35
2023-01-23T22:43:55.296Z,12.85
2023-01-23T22:46:23.660Z,11.90
2023-01-23T22:48:51.440Z,13.35
2023-01-23T22:51:25.050Z,13.93
2023-01-23T22:53:53.526Z,13.60
2023-01-23T22:56:21.191Z,11.45
2023-01-23T22:58:49.692Z,12.73
2023-01-23T23:01:17.549Z,11.93
2023-01-23T23:03:45.073Z,12.18
2023-01-23T23:06:14.497Z,12.55
2023-01-23T23:08:42.188Z,12.95
2023-01-23T23:11:14.577Z,13.20
2023-01-23T23:13:41.715Z,12.73
2023-01-23T23:16:14.785Z,13.45
2023-01-23T23:18:42.127Z,13.30
2023-01-23T23:21:11.515Z,13.88
2023-01-23T23:23:38.927Z,11.93
2023-01-23T23:26:09.542Z,11.73
2023-01-23T23:28:37.370Z,11.85
2023-01-23T23:31:05.410Z,12.13
2023-01-23T23:33:32.400Z,12.05
2023-01-23T23:35:59.567Z,12.07
2023-01-23T23:38:26.376Z,12.35
2023-01-23T23:41:05.455Z,11.88
2023-01-23T23:43:33.375Z,10.60
2023-01-23T23:46:02.931Z,12.00
2023-01-23T23:48:30.581Z,11.50
2023-01-23T23:51:00.906Z,12.50
2023-01-23T23:53:28.103Z,10.35
2023-01-23T23:55:55.264Z,9.90
2023-01-23T23:58:24.068Z,13.00
